Time;durP1;ratioP1;P1;durP2;ratioP2;P2;SDS_P1;SDS_P2;PMS_P1;PMS_P2;Temp;Humidity;BMP_temperature;BMP_pressure;BME280_temperature;BME280_humidity;BME280_pressure;Samples;Min_cycle;Max_cycle;Signal;HPM_P1;HPM_P2
2022/09/23 00:01:54;;;;;;;10.15;2.15;;;;;;;;;;5044693;28;20542;-65
2022/09/23 00:04:21;;;;;;;7.15;1.80;;;;;;;;;;5042540;28;20039;-65
2022/09/23 00:06:47;;;;;;;8.88;2.10;;;;;;;;;;5044153;28;20028;-65
2022/09/23 00:09:13;;;;;;;9.18;2.13;;;;;;;;;;5042679;28;20095;-65
2022/09/23 00:11:39;;;;;;;9.38;2.13;;;;;;;;;;5046463;28;20113;-65
2022/09/23 00:14:05;;;;;;;8.65;2.03;;;;;;;;;;5044755;28;20032;-65
2022/09/23 00:16:33;;;;;;;8.77;1.98;;;;;;;;;;5047752;28;20629;-65
2022/09/23 00:19:00;;;;;;;10.85;2.50;;;;;;;;;;5049543;28;20717;-65
2022/09/23 00:21:27;;;;;;;7.93;2.05;;;;;;;;;;5045675;28;20689;-65
2022/09/23 00:23:53;;;;;;;11.20;1.90;;;;;;;;;;5048190;28;20037;-65
2022/09/23 00:26:20;;;;;;;8.70;2.35;;;;;;;;;;5043365;28;20131;-65
2022/09/23 00:28:47;;;;;;;8.40;2.08;;;;;;;;;;5046512;28;20040;-65
2022/09/23 00:31:15;;;;;;;9.30;2.30;;;;;;;;;;5044537;28;20040;-65
2022/09/23 00:33:41;;;;;;;8.07;2.17;;;;;;;;;;5046122;28;20472;-65
2022/09/23 00:36:09;;;;;;;7.55;2.05;;;;;;;;;;5044774;28;20039;-66
2022/09/23 00:38:36;;;;;;;9.90;2.08;;;;;;;;;;5048702;28;20478;-65
2022/09/23 00:41:02;;;;;;;10.25;1.98;;;;;;;;;;5046926;28;20291;-65
2022/09/23 00:43:44;;;;;;;7.68;1.90;;;;;;;;;;5044258;28;20747;-65
2022/09/23 00:46:12;;;;;;;10.13;2.13;;;;;;;;;;5042343;28;20395;-65
2022/09/23 00:48:40;;;;;;;11.63;2.08;;;;;;;;;;5047759;28;20036;-65
2022/09/23 00:51:08;;;;;;;8.73;2.13;;;;;;;;;;5044395;28;20276;-65
2022/09/23 00:53:35;;;;;;;8.07;1.70;;;;;;;;;;5042914;28;20041;-65
2022/09/23 00:56:06;;;;;;;7.82;2.03;;;;;;;;;;5040878;28;20127;-65
2022/09/23 00:58:33;;;;;;;10.65;1.92;;;;;;;;;;5045244;28;20032;-65
2022/09/23 01:01:00;;;;;;;11.48;1.88;;;;;;;;;;5047920;28;20139;-65
2022/09/23 01:03:27;;;;;;;8.10;1.73;;;;;;;;;;5042644;28;20445;-65
2022/09/23 01:05:53;;;;;;;8.77;1.75;;;;;;;;;;5047601;28;20094;-65
2022/09/23 01:08:20;;;;;;;9.45;2.08;;;;;;;;;;5038975;28;20033;-65
2022/09/23 01:11:02;;;;;;;9.77;1.98;;;;;;;;;;5044214;28;20033;-65
2022/09/23 01:13:52;;;;;;;7.82;1.77;;;;;;;;;;5034715;28;20040;-65
2022/09/23 01:16:21;;;;;;;8.48;1.80;;;;;;;;;;5060738;28;20039;-65
2022/09/23 01:18:51;;;;;;;7.13;1.67;;;;;;;;;;5047497;28;20402;-65
2022/09/23 01:21:24;;;;;;;7.28;1.60;;;;;;;;;;5059158;28;20028;-65
2022/09/23 01:24:07;;;;;;;7.28;1.60;;;;;;;;;;5059944;28;20485;-65
2022/09/23 01:26:42;;;;;;;7.55;1.70;;;;;;;;;;5061482;28;20035;-65
2022/09/23 01:29:27;;;;;;;7.03;1.45;;;;;;;;;;5060639;28;20040;-66
2022/09/23 01:31:54;;;;;;;7.65;1.70;;;;;;;;;;5065063;28;20129;-65
2022/09/23 01:34:42;;;;;;;10.63;1.90;;;;;;;;;;5042591;28;20044;-65
2022/09/23 01:37:08;;;;;;;9.05;2.03;;;;;;;;;;5041684;28;20036;-65
2022/09/23 01:39:34;;;;;;;;;;;;;;;;;;5062987;28;20135;-65
2022/09/23 01:42:22;;;;;;;9.17;2.07;;;;;;;;;;5064976;28;19919;-65
2022/09/23 01:44:55;;;;;;;10.95;2.10;;;;;;;;;;5067685;28;20072;-65
2022/09/23 01:47:24;;;;;;;7.05;1.50;;;;;;;;;;5064177;28;20444;-65
2022/09/23 01:49:54;;;;;;;5.85;1.65;;;;;;;;;;5064808;28;20501;-66
2022/09/23 01:52:23;;;;;;;11.18;2.15;;;;;;;;;;5044819;28;20490;-66
2022/09/23 01:54:54;;;;;;;9.93;1.98;;;;;;;;;;5046129;28;20089;-66
2022/09/23 01:57:30;;;;;;;10.23;1.95;;;;;;;;;;5039820;28;20056;-64
2022/09/23 02:00:00;;;;;;;11.00;1.95;;;;;;;;;;5048280;28;20040;-65
2022/09/23 02:02:29;;;;;;;10.90;2.05;;;;;;;;;;5042418;28;20035;-65
2022/09/23 02:05:04;;;;;;;7.97;2.08;;;;;;;;;;5048600;28;20491;-65
2022/09/23 02:07:53;;;;;;;9.48;2.17;;;;;;;;;;5050076;28;20389;-65
2022/09/23 02:10:23;;;;;;;8.82;1.80;;;;;;;;;;5043534;28;20032;-65
2022/09/23 02:12:50;;;;;;;8.18;2.00;;;;;;;;;;5050217;28;20056;-65
2022/09/23 02:15:18;;;;;;;7.32;1.88;;;;;;;;;;5047906;28;20093;-65
2022/09/23 02:17:45;;;;;;;6.22;1.67;;;;;;;;;;5050330;28;20049;-65
2022/09/23 02:20:19;;;;;;;10.07;2.00;;;;;;;;;;5046373;28;20035;-65
2022/09/23 02:22:55;;;;;;;11.27;2.65;;;;;;;;;;5047940;28;20820;-65
2022/09/23 02:25:25;;;;;;;8.73;2.10;;;;;;;;;;5046444;28;20816;-65
2022/09/23 02:27:57;;;;;;;8.63;2.47;;;;;;;;;;5047958;28;20064;-65
2022/09/23 02:30:26;;;;;;;9.45;2.28;;;;;;;;;;5047215;28;20036;-65
2022/09/23 02:33:06;;;;;;;8.23;2.00;;;;;;;;;;5048291;28;20119;-65
2022/09/23 02:35:47;;;;;;;9.15;1.90;;;;;;;;;;5047140;28;20803;-65
2022/09/23 02:38:29;;;;;;;10.13;2.05;;;;;;;;;;5038331;28;20032;-65
2022/09/23 02:40:56;;;;;;;7.85;2.17;;;;;;;;;;5045883;28;20453;-66
2022/09/23 02:43:22;;;;;;;8.07;1.90;;;;;;;;;;5046416;28;20466;-65
2022/09/23 02:45:49;;;;;;;14.15;2.50;;;;;;;;;;5049786;28;20401;-65
2022/09/23 02:48:20;;;;;;;9.80;2.10;;;;;;;;;;5042154;28;20438;-65
2022/09/23 02:50:46;;;;;;;7.93;2.05;;;;;;;;;;5048532;28;20082;-65
2022/09/23 02:53:14;;;;;;;7.32;1.92;;;;;;;;;;5046608;28;20052;-65
2022/09/23 02:55:41;;;;;;;11.48;2.28;;;;;;;;;;5045973;28;20078;-65
2022/09/23 02:58:09;;;;;;;6.93;1.77;;;;;;;;;;5040780;28;21066;-65
2022/09/23 03:00:48;;;;;;;7.78;1.77;;;;;;;;;;5048969;28;20043;-65
2022/09/23 03:03:30;;;;;;;8.43;2.00;;;;;;;;;;5041709;28;20043;-65
2022/09/23 03:05:57;;;;;;;9.63;1.90;;;;;;;;;;5046833;28;20094;-65
2022/09/23 03:08:52;;;;;;;7.47;1.50;;;;;;;;;;5045242;28;20089;-65
2022/09/23 03:11:19;;;;;;;8.35;1.80;;;;;;;;;;5045341;28;20034;-65
2022/09/23 03:14:05;;;;;;;5.93;1.70;;;;;;;;;;5048717;28;20287;-65
2022/09/23 03:16:37;;;;;;;8.98;1.80;;;;;;;;;;5047221;28;20037;-65
2022/09/23 03:19:23;;;;;;;6.95;1.77;;;;;;;;;;5047634;28;20628;-65
2022/09/23 03:22:01;;;;;;;8.82;2.15;;;;;;;;;;5047740;28;20561;-65
2022/09/23 03:24:30;;;;;;;9.68;1.60;;;;;;;;;;5041482;28;20573;-65
2022/09/23 03:26:59;;;;;;;7.18;1.85;;;;;;;;;;5047548;28;20036;-65
2022/09/23 03:29:25;;;;;;;7.95;1.88;;;;;;;;;;5044057;28;20028;-65
2022/09/23 03:31:51;;;;;;;8.38;1.90;;;;;;;;;;5046797;28;20029;-65
2022/09/23 03:34:21;;;;;;;10.30;2.05;;;;;;;;;;5039816;28;20423;-64
2022/09/23 03:37:00;;;;;;;9.10;2.08;;;;;;;;;;5048687;28;20036;-65
2022/09/23 03:39:39;;;;;;;8.50;1.90;;;;;;;;;;5044745;28;20035;-65
2022/09/23 03:42:18;;;;;;;9.23;1.75;;;;;;;;;;5048337;28;20453;-65
2022/09/23 03:44:45;;;;;;;9.57;2.38;;;;;;;;;;5041100;28;20545;-65
2022/09/23 03:47:13;;;;;;;12.35;2.30;;;;;;;;;;5053186;28;20136;-64
2022/09/23 03:49:40;;;;;;;9.95;1.92;;;;;;;;;;5046278;28;20262;-66
2022/09/23 03:52:06;;;;;;;7.45;2.10;;;;;;;;;;5044458;28;20036;-65
2022/09/23 03:54:33;;;;;;;10.43;2.00;;;;;;;;;;5046770;28;20263;-64
2022/09/23 03:56:59;;;;;;;7.72;1.83;;;;;;;;;;5047212;28;20031;-65
2022/09/23 03:59:26;;;;;;;8.50;1.70;;;;;;;;;;5046299;28;21827;-65
2022/09/23 04:01:52;;;;;;;6.82;1.70;;;;;;;;;;5047297;28;20028;-65
2022/09/23 04:04:18;;;;;;;9.02;1.80;;;;;;;;;;5045478;28;20039;-64
2022/09/23 04:06:44;;;;;;;8.02;1.70;;;;;;;;;;5045593;28;20030;-65
2022/09/23 04:09:10;;;;;;;9.60;1.70;;;;;;;;;;5045130;28;20036;-65
2022/09/23 04:11:36;;;;;;;;;;;;;;;;;;5050017;28;20454;-65
2022/09/23 04:14:04;;;;;;;11.27;2.38;;;;;;;;;;5047483;28;20343;-65
2022/09/23 04:16:30;;;;;;;10.27;1.80;;;;;;;;;;5044337;28;20056;-65
2022/09/23 04:18:57;;;;;;;12.48;2.22;;;;;;;;;;5047087;28;20573;-64
2022/09/23 04:21:23;;;;;;;6.60;1.77;;;;;;;;;;5037529;28;20056;-65
2022/09/23 04:23:49;;;;;;;;;;;;;;;;;;5046665;28;20705;-64
2022/09/23 04:26:15;;;;;;;10.93;2.05;;;;;;;;;;5040601;28;19913;-64
2022/09/23 04:28:41;;;;;;;;;;;;;;;;;;5047872;28;20029;-64
2022/09/23 04:31:08;;;;;;;8.68;2.20;;;;;;;;;;5044373;28;20363;-64
2022/09/23 04:33:35;;;;;;;9.10;2.15;;;;;;;;;;5043845;28;20035;-64
2022/09/23 04:36:01;;;;;;;9.10;2.20;;;;;;;;;;5046876;28;20055;-64
2022/09/23 04:38:27;;;;;;;7.10;2.03;;;;;;;;;;5044150;28;20063;-64
2022/09/23 04:40:53;;;;;;;;;;;;;;;;;;5036342;28;20129;-64
2022/09/23 04:43:22;;;;;;;7.38;1.73;;;;;;;;;;5051964;28;19943;-65
2022/09/23 04:45:57;;;;;;;7.68;1.90;;;;;;;;;;5048132;28;20070;-65
2022/09/23 04:48:23;;;;;;;9.20;1.80;;;;;;;;;;5043018;28;20107;-65
2022/09/23 04:50:49;;;;;;;;;;;;;;;;;;5047313;28;20393;-66
2022/09/23 04:53:16;;;;;;;9.10;2.00;;;;;;;;;;5044438;28;20472;-64
2022/09/23 04:55:42;;;;;;;7.85;2.00;;;;;;;;;;5045482;28;20032;-64
2022/09/23 04:58:09;;;;;;;8.52;2.10;;;;;;;;;;5042477;28;20040;-64
2022/09/23 05:00:35;;;;;;;8.13;2.10;;;;;;;;;;5045626;28;20494;-64
2022/09/23 05:03:01;;;;;;;10.38;2.17;;;;;;;;;;5043753;28;20060;-64
2022/09/23 05:05:28;;;;;;;10.85;2.10;;;;;;;;;;5043437;28;20396;-64
2022/09/23 05:07:55;;;;;;;8.55;2.10;;;;;;;;;;5047043;28;20260;-65
2022/09/23 05:10:21;;;;;;;11.35;2.03;;;;;;;;;;5042948;28;20059;-64
2022/09/23 05:12:47;;;;;;;10.60;2.08;;;;;;;;;;5047509;28;20027;-64
2022/09/23 05:15:14;;;;;;;9.70;2.10;;;;;;;;;;5043135;28;20094;-65
2022/09/23 05:17:41;;;;;;;11.35;2.28;;;;;;;;;;5050773;28;20079;-65
2022/09/23 05:20:09;;;;;;;9.02;2.10;;;;;;;;;;5047822;28;20036;-64
2022/09/23 05:22:35;;;;;;;10.80;2.17;;;;;;;;;;5047971;28;20559;-64
2022/09/23 05:25:01;;;;;;;8.25;1.90;;;;;;;;;;5050972;28;20631;-65
2022/09/23 05:27:27;;;;;;;;;;;;;;;;;;5046995;28;20020;-64
2022/09/23 05:29:54;;;;;;;6.78;1.90;;;;;;;;;;5048200;28;19969;-64
2022/09/23 05:32:20;;;;;;;10.10;2.17;;;;;;;;;;5044816;28;20040;-64
2022/09/23 05:34:47;;;;;;;7.55;1.85;;;;;;;;;;5044807;28;20437;-64
2022/09/23 05:37:13;;;;;;;11.82;2.15;;;;;;;;;;5043094;28;20055;-66
2022/09/23 05:39:39;;;;;;;;;;;;;;;;;;5049123;28;20123;-64
2022/09/23 05:42:05;;;;;;;11.27;2.33;;;;;;;;;;5050652;28;20403;-64
2022/09/23 05:44:31;;;;;;;9.15;2.15;;;;;;;;;;5050679;28;20378;-64
2022/09/23 05:46:57;;;;;;;;;;;;;;;;;;5047322;28;20093;-65
2022/09/23 05:49:23;;;;;;;10.95;2.85;;;;;;;;;;5042817;28;20255;-65
2022/09/23 05:51:50;;;;;;;14.40;5.47;;;;;;;;;;5047423;28;20123;-65
2022/09/23 05:54:15;;;;;;;;;;;;;;;;;;5044602;28;20046;-65
2022/09/23 05:56:42;;;;;;;8.60;2.58;;;;;;;;;;5046921;28;19913;-65
2022/09/23 05:59:08;;;;;;;8.75;2.53;;;;;;;;;;5044651;28;20034;-65
2022/09/23 06:01:36;;;;;;;8.05;2.53;;;;;;;;;;5047317;28;20033;-65
2022/09/23 06:04:04;;;;;;;9.30;2.55;;;;;;;;;;5049528;28;20604;-65
2022/09/23 06:06:31;;;;;;;9.52;2.42;;;;;;;;;;5043486;28;20024;-64
2022/09/23 06:08:58;;;;;;;8.70;2.10;;;;;;;;;;5049228;28;20115;-64
2022/09/23 06:11:24;;;;;;;10.20;2.60;;;;;;;;;;5046858;28;20028;-67
2022/09/23 06:13:54;;;;;;;10.25;2.70;;;;;;;;;;5050094;28;20044;-65
2022/09/23 06:16:20;;;;;;;9.52;2.40;;;;;;;;;;5046818;28;20042;-64
2022/09/23 06:18:46;;;;;;;;;;;;;;;;;;5049853;28;20345;-64
2022/09/23 06:21:15;;;;;;;11.88;2.40;;;;;;;;;;5043092;28;19985;-64
2022/09/23 06:23:42;;;;;;;8.38;2.25;;;;;;;;;;5048183;28;20749;-65
2022/09/23 06:26:09;;;;;;;15.60;3.72;;;;;;;;;;5044091;28;20025;-65
2022/09/23 06:28:36;;;;;;;8.50;2.80;;;;;;;;;;5047322;28;20577;-65
2022/09/23 06:31:04;;;;;;;7.55;2.10;;;;;;;;;;5041209;28;20033;-64
2022/09/23 06:33:30;;;;;;;12.77;2.30;;;;;;;;;;5040793;28;20475;-65
2022/09/23 06:35:57;;;;;;;8.60;2.20;;;;;;;;;;5049203;28;20581;-65
2022/09/23 06:38:23;;;;;;;10.80;2.60;;;;;;;;;;5044580;28;20402;-65
2022/09/23 06:40:50;;;;;;;8.73;2.83;;;;;;;;;;5047750;28;20082;-66
2022/09/23 06:43:16;;;;;;;11.20;2.40;;;;;;;;;;5044380;28;20047;-66
2022/09/23 06:45:42;;;;;;;9.40;2.58;;;;;;;;;;5047339;28;20705;-64
2022/09/23 06:48:08;;;;;;;;;;;;;;;;;;5044407;28;20101;-64
2022/09/23 06:50:35;;;;;;;10.35;2.80;;;;;;;;;;5046201;28;20736;-65
2022/09/23 06:53:02;;;;;;;12.40;3.28;;;;;;;;;;5046054;28;20152;-64
2022/09/23 06:55:28;;;;;;;11.80;2.22;;;;;;;;;;5042090;28;20032;-64
2022/09/23 06:57:55;;;;;;;12.50;2.10;;;;;;;;;;5044873;28;20533;-65
2022/09/23 07:00:22;;;;;;;9.38;2.00;;;;;;;;;;5040894;28;20528;-66
2022/09/23 07:02:48;;;;;;;9.80;2.28;;;;;;;;;;5046642;28;20474;-65
2022/09/23 07:05:17;;;;;;;8.98;2.30;;;;;;;;;;5044729;28;20805;-65
2022/09/23 07:07:44;;;;;;;9.65;2.10;;;;;;;;;;5048568;28;20073;-65
2022/09/23 07:10:11;;;;;;;10.05;1.88;;;;;;;;;;5045708;28;20345;-66
2022/09/23 07:12:37;;;;;;;10.63;2.13;;;;;;;;;;5042756;28;20025;-66
2022/09/23 07:15:03;;;;;;;14.90;2.58;;;;;;;;;;5043305;28;20107;-66
2022/09/23 07:17:29;;;;;;;12.15;2.10;;;;;;;;;;5038239;28;20831;-66
2022/09/23 07:19:56;;;;;;;9.40;1.80;;;;;;;;;;5048053;28;20119;-66
2022/09/23 07:22:23;;;;;;;11.18;2.28;;;;;;;;;;5043330;28;20128;-66
2022/09/23 07:24:50;;;;;;;16.33;2.80;;;;;;;;;;5048197;28;20109;-66
2022/09/23 07:27:18;;;;;;;12.55;2.53;;;;;;;;;;5041720;28;20035;-66
2022/09/23 07:29:46;;;;;;;15.73;2.80;;;;;;;;;;5044258;28;20072;-66
2022/09/23 07:32:12;;;;;;;11.07;2.42;;;;;;;;;;5043696;28;20037;-66
2022/09/23 07:34:38;;;;;;;13.98;2.40;;;;;;;;;;5047004;28;20032;-66
2022/09/23 07:37:05;;;;;;;8.63;2.42;;;;;;;;;;5047967;28;20040;-66
2022/09/23 07:39:31;;;;;;;12.27;2.50;;;;;;;;;;5042537;28;20280;-64
2022/09/23 07:41:58;;;;;;;14.00;2.50;;;;;;;;;;5047236;28;20028;-64
2022/09/23 07:44:26;;;;;;;12.43;2.53;;;;;;;;;;5041696;28;20024;-65
2022/09/23 07:46:52;;;;;;;10.40;1.98;;;;;;;;;;5047755;28;20032;-65
2022/09/23 07:49:18;;;;;;;11.82;2.80;;;;;;;;;;5045332;28;20139;-65
2022/09/23 07:51:45;;;;;;;11.23;2.50;;;;;;;;;;5037971;28;20685;-65
2022/09/23 07:54:12;;;;;;;15.48;2.47;;;;;;;;;;5040551;28;20024;-65
2022/09/23 07:56:38;;;;;;;17.20;2.65;;;;;;;;;;5047410;28;20406;-65
2022/09/23 07:59:07;;;;;;;9.20;2.08;;;;;;;;;;5048017;28;20036;-65
2022/09/23 08:01:37;;;;;;;6.05;1.67;;;;;;;;;;5045673;28;20024;-65
2022/09/23 08:04:05;;;;;;;9.57;1.80;;;;;;;;;;5044967;28;20104;-64
2022/09/23 08:06:32;;;;;;;7.18;1.92;;;;;;;;;;5046314;28;20731;-64
2022/09/23 08:08:59;;;;;;;10.50;1.80;;;;;;;;;;5048219;28;20029;-66
2022/09/23 08:11:25;;;;;;;8.60;2.20;;;;;;;;;;5044361;28;20036;-65
2022/09/23 08:13:52;;;;;;;7.38;1.45;;;;;;;;;;5048425;28;20225;-65
2022/09/23 08:16:19;;;;;;;8.55;1.77;;;;;;;;;;5037964;28;20036;-65
2022/09/23 08:18:45;;;;;;;11.18;2.15;;;;;;;;;;5044156;28;20041;-65
2022/09/23 08:21:11;;;;;;;9.60;1.70;;;;;;;;;;5043582;28;20032;-65
2022/09/23 08:23:37;;;;;;;6.60;1.70;;;;;;;;;;5043196;28;20044;-65
2022/09/23 08:26:05;;;;;;;7.55;1.75;;;;;;;;;;5044283;28;20067;-65
2022/09/23 08:28:32;;;;;;;9.65;1.70;;;;;;;;;;5047296;28;20054;-65
2022/09/23 08:30:59;;;;;;;6.07;1.42;;;;;;;;;;5048491;28;20040;-65
2022/09/23 08:33:25;;;;;;;9.15;1.65;;;;;;;;;;5044548;28;20562;-65
2022/09/23 08:35:52;;;;;;;9.00;1.88;;;;;;;;;;5046683;28;20127;-65
2022/09/23 08:38:19;;;;;;;9.80;1.67;;;;;;;;;;5043505;28;20028;-65
2022/09/23 08:40:48;;;;;;;14.60;2.05;;;;;;;;;;5045756;28;20036;-65
2022/09/23 08:43:20;;;;;;;9.52;1.60;;;;;;;;;;5040653;28;20104;-65
2022/09/23 08:45:49;;;;;;;9.02;1.90;;;;;;;;;;5047372;28;20025;-65
2022/09/23 08:48:16;;;;;;;8.63;1.58;;;;;;;;;;5042795;28;20024;-65
2022/09/23 08:50:44;;;;;;;5.68;1.35;;;;;;;;;;5043070;28;20036;-65
2022/09/23 08:53:16;;;;;;;5.20;1.40;;;;;;;;;;5044541;28;20025;-65
2022/09/23 08:55:47;;;;;;;6.05;1.27;;;;;;;;;;5049608;28;20029;-66
2022/09/23 08:58:34;;;;;;;7.10;1.60;;;;;;;;;;5043730;28;20542;-66
2022/09/23 09:00:59;;;;;;;;;;;;;;;;;;5052275;28;20063;-65
2022/09/23 09:03:30;;;;;;;8.53;1.73;;;;;;;;;;5044836;28;21437;-65
2022/09/23 09:05:57;;;;;;;7.25;1.65;;;;;;;;;;5047401;28;20119;-65
2022/09/23 09:08:31;;;;;;;7.68;1.60;;;;;;;;;;5047175;28;20024;-65
2022/09/23 09:10:57;;;;;;;7.53;1.65;;;;;;;;;;5048858;28;20187;-67
2022/09/23 09:13:23;;;;;;;10.18;1.70;;;;;;;;;;5047187;28;20763;-66
2022/09/23 09:15:56;;;;;;;12.32;1.90;;;;;;;;;;5046138;28;20036;-66
2022/09/23 09:18:23;;;;;;;9.60;1.52;;;;;;;;;;5045971;28;20048;-66
2022/09/23 09:20:57;;;;;;;7.22;1.60;;;;;;;;;;5043403;28;20041;-66
2022/09/23 09:23:24;;;;;;;7.55;1.77;;;;;;;;;;5042818;28;20666;-66
2022/09/23 09:25:51;;;;;;;8.02;1.60;;;;;;;;;;5052154;28;20134;-66
2022/09/23 09:28:29;;;;;;;4.82;1.23;;;;;;;;;;5049009;28;20024;-66
2022/09/23 09:31:16;;;;;;;7.60;1.58;;;;;;;;;;5046699;28;20525;-66
2022/09/23 09:33:50;;;;;;;7.38;1.38;;;;;;;;;;5045788;28;20045;-66
2022/09/23 09:36:25;;;;;;;8.30;1.50;;;;;;;;;;5043329;28;20040;-66
2022/09/23 09:38:52;;;;;;;5.57;1.30;;;;;;;;;;5051614;28;20083;-66
2022/09/23 09:41:23;;;;;;;4.78;1.10;;;;;;;;;;5047137;28;20020;-67
2022/09/23 09:43:56;;;;;;;5.57;1.40;;;;;;;;;;5049647;28;20044;-65
2022/09/23 09:46:37;;;;;;;6.80;1.40;;;;;;;;;;5046907;28;20028;-65
2022/09/23 09:49:11;;;;;;;6.63;1.50;;;;;;;;;;5037894;28;20481;-64
2022/09/23 09:51:40;;;;;;;6.78;1.40;;;;;;;;;;5045332;28;20424;-64
2022/09/23 09:54:25;;;;;;;6.05;1.33;;;;;;;;;;5048648;28;20029;-65
2022/09/23 09:56:52;;;;;;;7.65;1.55;;;;;;;;;;5051020;28;20101;-65
2022/09/23 09:59:23;;;;;;;6.93;1.40;;;;;;;;;;5047665;28;20044;-65
2022/09/23 10:01:49;;;;;;;8.10;1.42;;;;;;;;;;5048346;28;20122;-66
2022/09/23 10:04:23;;;;;;;5.93;1.25;;;;;;;;;;5043791;28;20437;-66
2022/09/23 10:07:12;;;;;;;7.00;1.35;;;;;;;;;;5042617;28;20024;-66
2022/09/23 10:09:39;;;;;;;6.57;1.33;;;;;;;;;;5048801;28;20544;-66
2022/09/23 10:12:13;;;;;;;6.28;1.33;;;;;;;;;;5048696;28;20029;-64
2022/09/23 10:14:39;;;;;;;6.57;1.53;;;;;;;;;;5050120;28;20028;-66
2022/09/23 10:17:07;;;;;;;8.52;1.40;;;;;;;;;;5045744;28;20078;-65
2022/09/23 10:19:35;;;;;;;8.15;1.50;;;;;;;;;;5047345;28;20577;-66
2022/09/23 10:22:08;;;;;;;5.75;1.45;;;;;;;;;;5047351;28;20024;-66
2022/09/23 10:24:37;;;;;;;5.82;1.10;;;;;;;;;;5043859;28;20287;-66
2022/09/23 10:27:08;;;;;;;5.90;1.38;;;;;;;;;;5052939;28;20031;-65
2022/09/23 10:29:48;;;;;;;5.22;1.02;;;;;;;;;;5049262;28;20033;-66
2022/09/23 10:32:25;;;;;;;7.60;1.80;;;;;;;;;;5040544;28;20028;-66
2022/09/23 10:35:14;;;;;;;6.68;1.48;;;;;;;;;;5048903;28;20086;-65
2022/09/23 10:37:48;;;;;;;5.00;1.30;;;;;;;;;;5049244;28;20032;-65
2022/09/23 10:49:15;;;;;;;5.07;1.35;;;;;;;;;;5061959;28;20093;-65
2022/09/23 10:51:44;;;;;;;6.70;1.20;;;;;;;;;;5048088;28;20032;-65
2022/09/23 10:54:29;;;;;;;7.75;1.40;;;;;;;;;;5061556;28;20115;-65
2022/09/23 10:56:58;;;;;;;4.90;1.30;;;;;;;;;;5064416;28;20057;-67
2022/09/23 10:59:26;;;;;;;5.82;1.23;;;;;;;;;;5062955;28;20036;-65
2022/09/23 11:01:58;;;;;;;4.70;1.23;;;;;;;;;;5061079;28;20043;-67
2022/09/23 11:04:37;;;;;;;4.57;1.20;;;;;;;;;;5061461;28;20528;-65
2022/09/23 11:07:06;;;;;;;6.72;1.38;;;;;;;;;;5065022;28;20132;-66
2022/09/23 11:09:39;;;;;;;5.68;1.20;;;;;;;;;;5065178;28;20152;-66
2022/09/23 11:12:06;;;;;;;8.93;1.40;;;;;;;;;;5065651;28;20036;-66
2022/09/23 11:14:43;;;;;;;7.07;1.27;;;;;;;;;;5061693;28;20161;-65
2022/09/23 11:17:15;;;;;;;5.90;1.33;;;;;;;;;;5053819;28;20071;-67
2022/09/23 11:19:44;;;;;;;5.72;1.30;;;;;;;;;;5060738;28;20032;-65
2022/09/23 11:22:31;;;;;;;7.43;1.40;;;;;;;;;;5046176;28;20041;-65
2022/09/23 11:25:06;;;;;;;6.95;1.27;;;;;;;;;;5042426;28;20105;-65
2022/09/23 11:28:05;;;;;;;7.45;1.50;;;;;;;;;;5043197;28;20024;-65
2022/09/23 11:30:48;;;;;;;6.07;1.55;;;;;;;;;;5039731;28;20254;-66
2022/09/23 11:33:28;;;;;;;7.32;1.48;;;;;;;;;;5035758;28;20051;-65
2022/09/23 11:36:00;;;;;;;5.47;1.30;;;;;;;;;;5038940;28;20041;-65
2022/09/23 11:38:31;;;;;;;5.50;1.13;;;;;;;;;;5034566;28;20509;-65
2022/09/23 11:41:02;;;;;;;4.13;1.20;;;;;;;;;;5039003;28;20037;-65
2022/09/23 11:43:32;;;;;;;6.57;1.60;;;;;;;;;;5018068;28;20544;-66
2022/09/23 11:46:02;;;;;;;7.65;1.55;;;;;;;;;;5038820;28;20037;-65
2022/09/23 11:48:47;;;;;;;6.90;1.45;;;;;;;;;;5038475;28;20145;-65
2022/09/23 11:51:30;;;;;;;7.22;1.30;;;;;;;;;;5036293;28;20551;-66
2022/09/23 11:53:59;;;;;;;5.32;1.20;;;;;;;;;;5020910;28;20089;-66
2022/09/23 11:56:27;;;;;;;5.50;1.45;;;;;;;;;;5031703;28;20039;-65
2022/09/23 11:58:59;;;;;;;6.72;1.67;;;;;;;;;;5019386;28;20040;-65
2022/09/23 12:01:32;;;;;;;6.13;1.40;;;;;;;;;;5035783;28;21353;-65
2022/09/23 12:04:03;;;;;;;7.05;1.42;;;;;;;;;;5035847;28;20024;-65
2022/09/23 12:06:36;;;;;;;5.75;1.55;;;;;;;;;;5034845;28;20040;-65
2022/09/23 12:09:08;;;;;;;5.60;1.35;;;;;;;;;;5033861;28;20063;-65
2022/09/23 12:11:42;;;;;;;7.28;1.60;;;;;;;;;;5042703;28;20032;-65
2022/09/23 12:14:14;;;;;;;5.18;1.20;;;;;;;;;;5034782;28;20555;-66
2022/09/23 12:17:00;;;;;;;12.90;4.03;;;;;;;;;;5042584;28;20470;-66
2022/09/23 12:19:32;;;;;;;6.35;1.70;;;;;;;;;;5040646;28;20036;-65
2022/09/23 12:22:01;;;;;;;7.47;1.10;;;;;;;;;;5041216;28;20047;-65
2022/09/23 12:24:33;;;;;;;14.25;5.85;;;;;;;;;;5038273;28;20426;-66
2022/09/23 12:27:01;;;;;;;5.10;1.35;;;;;;;;;;5042403;28;20031;-65
2022/09/23 12:29:30;;;;;;;7.03;1.83;;;;;;;;;;5041416;28;20063;-65
2022/09/23 12:31:57;;;;;;;5.43;1.20;;;;;;;;;;5040202;28;20693;-65
2022/09/23 12:34:30;;;;;;;7.57;1.67;;;;;;;;;;5038817;28;20496;-66
2022/09/23 12:37:03;;;;;;;4.75;1.30;;;;;;;;;;5044252;28;20047;-64
2022/09/23 12:39:34;;;;;;;7.47;1.52;;;;;;;;;;5041116;28;20116;-65
2022/09/23 12:42:02;;;;;;;8.35;1.65;;;;;;;;;;5044562;28;20029;-66
2022/09/23 12:44:31;;;;;;;4.97;1.45;;;;;;;;;;5034968;28;20013;-65
2022/09/23 12:47:26;;;;;;;8.35;1.52;;;;;;;;;;5043416;28;20046;-64
2022/09/23 12:49:52;;;;;;;;;;;;;;;;;;5043204;28;20079;-66
2022/09/23 12:52:18;;;;;;;7.40;1.38;;;;;;;;;;5038890;28;20560;-66
2022/09/23 12:54:45;;;;;;;5.85;1.48;;;;;;;;;;5035340;28;20029;-66
2022/09/23 12:57:32;;;;;;;7.15;1.75;;;;;;;;;;5036473;28;20543;-66
2022/09/23 12:59:59;;;;;;;6.07;1.52;;;;;;;;;;5041379;28;20147;-66
2022/09/23 13:02:27;;;;;;;6.47;1.42;;;;;;;;;;5038168;28;21662;-66
2022/09/23 13:07:48;;;;;;;7.57;1.30;;;;;;;;;;5040364;28;20086;-66
2022/09/23 13:10:16;;;;;;;5.70;1.00;;;;;;;;;;5036805;28;20446;-65
2022/09/23 13:12:43;;;;;;;8.82;1.48;;;;;;;;;;5042412;28;20493;-65
2022/09/23 13:15:36;;;;;;;3.55;1.17;;;;;;;;;;5036025;28;20512;-65
2022/09/23 13:18:35;;;;;;;4.85;1.15;;;;;;;;;;5038910;28;20122;-66
2022/09/23 13:21:14;;;;;;;5.82;1.35;;;;;;;;;;5064669;28;20036;-67
2022/09/23 13:24:00;;;;;;;9.32;1.48;;;;;;;;;;5064750;28;20160;-68
2022/09/23 13:26:31;;;;;;;7.13;1.30;;;;;;;;;;5061618;28;20985;-68
2022/09/23 13:28:58;;;;;;;6.28;1.40;;;;;;;;;;5066725;28;20042;-65
2022/09/23 13:31:24;;;;;;;5.35;1.30;;;;;;;;;;5063968;28;20151;-65
2022/09/23 13:33:52;;;;;;;7.45;1.40;;;;;;;;;;5065458;28;20043;-64
2022/09/23 13:36:19;;;;;;;8.48;1.50;;;;;;;;;;5042863;28;20138;-65
2022/09/23 13:38:46;;;;;;;8.43;1.33;;;;;;;;;;5073849;28;20477;-65
2022/09/23 13:41:19;;;;;;;6.63;1.30;;;;;;;;;;5073267;28;20040;-65
2022/09/23 13:43:48;;;;;;;6.57;1.10;;;;;;;;;;5060511;28;20527;-65
2022/09/23 13:46:22;;;;;;;7.22;1.23;;;;;;;;;;5070033;28;20146;-65
2022/09/23 13:48:50;;;;;;;7.07;1.30;;;;;;;;;;5067246;28;20063;-65
2022/09/23 13:51:37;;;;;;;5.57;1.40;;;;;;;;;;5068545;28;20053;-65
2022/09/23 13:54:04;;;;;;;7.75;1.40;;;;;;;;;;5074070;28;20387;-65
2022/09/23 13:56:31;;;;;;;6.95;1.30;;;;;;;;;;5059529;28;20064;-66
2022/09/23 13:59:16;;;;;;;7.00;1.80;;;;;;;;;;5050164;28;20033;-66
2022/09/23 14:01:42;;;;;;;7.13;1.50;;;;;;;;;;5041510;28;20038;-66
2022/09/23 14:04:22;;;;;;;9.02;1.48;;;;;;;;;;5040339;28;20347;-66
2022/09/23 14:06:48;;;;;;;5.95;1.15;;;;;;;;;;5044098;28;20025;-66
2022/09/23 14:09:15;;;;;;;7.03;1.10;;;;;;;;;;5043865;28;20531;-67
2022/09/23 14:11:41;;;;;;;5.50;1.13;;;;;;;;;;5044628;28;20016;-66
2022/09/23 14:14:08;;;;;;;8.25;1.10;;;;;;;;;;5043630;28;20505;-66
2022/09/23 14:16:39;;;;;;;9.02;1.15;;;;;;;;;;5041246;28;20133;-66
2022/09/23 14:19:06;;;;;;;6.40;1.15;;;;;;;;;;5044247;28;20200;-66
2022/09/23 14:21:39;;;;;;;5.18;1.08;;;;;;;;;;5045265;28;20668;-66
2022/09/23 14:24:15;;;;;;;6.07;1.25;;;;;;;;;;5044405;28;20028;-66
2022/09/23 14:26:42;;;;;;;6.00;1.05;;;;;;;;;;5044729;28;20028;-66
2022/09/23 14:29:28;;;;;;;7.15;1.33;;;;;;;;;;5043492;28;20048;-66
2022/09/23 14:32:02;;;;;;;5.82;1.30;;;;;;;;;;5044863;28;20040;-66
2022/09/23 14:34:44;;;;;;;7.63;1.42;;;;;;;;;;5043784;28;20031;-66
2022/09/23 14:40:18;;;;;;;7.38;1.10;;;;;;;;;;5041038;28;20517;-67
2022/09/23 14:42:56;;;;;;;6.45;1.20;;;;;;;;;;5043862;28;20033;-66
2022/09/23 14:45:27;;;;;;;6.55;1.42;;;;;;;;;;5039268;28;20020;-66
2022/09/23 14:48:19;;;;;;;4.45;1.20;;;;;;;;;;5045742;28;20668;-66
2022/09/23 14:50:50;;;;;;;6.28;1.08;;;;;;;;;;5043065;28;20371;-67
2022/09/23 14:53:23;;;;;;;7.43;1.60;;;;;;;;;;5040616;28;20036;-66
2022/09/23 14:55:51;;;;;;;5.00;0.90;;;;;;;;;;5042776;28;20056;-66
2022/09/23 14:58:18;;;;;;;6.55;1.20;;;;;;;;;;5041113;28;20549;-66
2022/09/23 15:00:59;;;;;;;5.13;0.90;;;;;;;;;;5040476;28;20392;-65
2022/09/23 15:03:27;;;;;;;3.85;1.00;;;;;;;;;;5038214;28;20798;-66
2022/09/23 15:05:56;;;;;;;6.28;1.20;;;;;;;;;;5044015;28;20024;-65
2022/09/23 15:08:24;;;;;;;6.30;1.30;;;;;;;;;;5041506;28;20067;-66
2022/09/23 15:10:50;;;;;;;5.53;1.05;;;;;;;;;;5042362;28;20039;-66
2022/09/23 15:13:19;;;;;;;4.13;1.00;;;;;;;;;;5038838;28;20036;-66
2022/09/23 15:15:45;;;;;;;6.68;1.15;;;;;;;;;;5044422;28;20094;-66
2022/09/23 15:18:32;;;;;;;8.88;1.52;;;;;;;;;;5041024;28;20605;-67
2022/09/23 15:21:02;;;;;;;4.95;1.20;;;;;;;;;;5045710;28;20753;-67